Capitol Hill, Washington
Current Conditions -  °F | °C
As of 6:59 PM on Friday 21 Nov 2014 (Local Time) from KBFI Reporting Station
Light Rain Light Rain  
Wind Chill: 52°   Ceiling: 1100
Heat Index: 52°   Visibility: 6mi
Dew Point: 46°   Wind: 8mph
Humidity: 82%   Direction: 140°SE
Pressure: 29.33"   Gusts: NA
Location:  47.6341°N, 122.322°W
Report Text: KBFI 220259Z 14007KT 6SM -RA BR OVC011 11/08 A2933 RMK AO2 RAB58 P0000
Loading
Personal Weather Stations






























Interactive Weather Map New forecast layout! Learn more

10-Day Weather Forecast

Advertisements
Track Severe Weather on mobile